Terminal Aerodrome Forecast
Issued by NWS

Home | Current Version | Previous Version | Text Only | Print | Product List | Glossary On
Versions: 1 2 3 4 5 6 7 8 9 10 11 12 13
000
FTUS46 KOTX 072320
TAFCOE
TAF
KCOE 072320Z 0800/0824 01011KT P6SM BKN070
     FM080200 02014KT P6SM SCT070
     FM080800 03015G22KT P6SM SCT250
     FM081900 02020G28KT P6SM BKN200=

USA.gov is the U.S. government's official web portal to all federal, state and local government web resources and services.